createdAt,value
2018-12-13T00:00:20.202Z,7.40
2018-12-13T00:02:54.467Z,7.43
2018-12-13T00:05:28.405Z,7.20
2018-12-13T00:08:02.603Z,7.07
2018-12-13T00:10:34.963Z,6.47
2018-12-13T00:13:09.293Z,6.87
2018-12-13T00:15:43.417Z,7.10
2018-12-13T00:18:17.220Z,5.97
2018-12-13T00:20:51.488Z,6.60
2018-12-13T00:23:25.974Z,5.67
2018-12-13T00:26:00.155Z,6.50
2018-12-13T00:28:34.137Z,7.13
2018-12-13T00:31:08.526Z,6.37
2018-12-13T00:33:42.402Z,5.90
2018-12-13T00:36:16.409Z,6.23
2018-12-13T00:38:50.284Z,7.53
2018-12-13T00:41:24.079Z,6.20
2018-12-13T00:43:57.922Z,7.00
2018-12-13T00:46:32.201Z,7.30
2018-12-13T00:49:07.029Z,6.30
2018-12-13T00:51:39.357Z,6.53
2018-12-13T00:54:13.826Z,6.50
2018-12-13T00:56:48.185Z,7.97
2018-12-13T00:59:20.624Z,6.67
2018-12-13T01:01:55.395Z,6.27
2018-12-13T01:04:27.803Z,6.17
2018-12-13T01:07:02.327Z,6.27
2018-12-13T01:09:36.491Z,6.40
2018-12-13T01:12:10.687Z,7.47
2018-12-13T01:14:44.905Z,8.37
2018-12-13T01:17:18.915Z,6.60
2018-12-13T01:19:53.089Z,6.20
2018-12-13T01:22:27.096Z,7.27
2018-12-13T01:25:01.285Z,7.00
2018-12-13T01:27:35.289Z,6.23
2018-12-13T01:30:09.362Z,7.33
2018-12-13T01:32:43.281Z,8.80
2018-12-13T01:35:17.524Z,7.90
2018-12-13T01:37:51.327Z,7.97
2018-12-13T01:40:25.129Z,6.07
2018-12-13T01:42:59.130Z,6.23
2018-12-13T01:45:34.623Z,10.57
2018-12-13T01:48:09.096Z,6.20
2018-12-13T01:50:43.049Z,6.70
2018-12-13T01:53:17.378Z,6.40
2018-12-13T01:55:51.878Z,6.23
2018-12-13T01:58:23.879Z,6.47
2018-12-13T02:00:55.976Z,6.30
2018-12-13T02:03:27.968Z,6.10
2018-12-13T02:06:01.513Z,6.07
2018-12-13T02:08:33.044Z,6.63
2018-12-13T02:11:06.599Z,6.10
2018-12-13T02:13:38.284Z,6.23
2018-12-13T02:16:10.249Z,5.67
2018-12-13T02:18:42.498Z,5.57
2018-12-13T02:21:14.156Z,6.10
2018-12-13T02:23:47.805Z,6.30
2018-12-13T02:26:19.252Z,5.70
2018-12-13T02:28:52.956Z,6.23
2018-12-13T02:31:24.631Z,6.57
2018-12-13T02:33:56.465Z,7.37
2018-12-13T02:36:30.173Z,6.37
2018-12-13T02:39:01.877Z,6.30
2018-12-13T02:41:33.888Z,6.03
2018-12-13T02:44:07.434Z,6.00
2018-12-13T02:46:39.040Z,7.03
2018-12-13T02:49:11.102Z,5.50
2018-12-13T02:51:43.040Z,6.00
2018-12-13T02:54:15.149Z,5.87
2018-12-13T02:56:47.204Z,5.60
2018-12-13T02:59:19.077Z,5.97
2018-12-13T03:01:50.946Z,6.10
2018-12-13T03:04:23.353Z,6.27
2018-12-13T03:06:55.078Z,5.43
2018-12-13T03:09:28.638Z,5.80
2018-12-13T03:12:02.364Z,6.00
2018-12-13T03:14:36.201Z,6.23
2018-12-13T03:17:07.761Z,6.70
2018-12-13T03:19:41.370Z,5.60
2018-12-13T03:22:12.856Z,6.07
2018-12-13T03:24:44.601Z,5.00
2018-12-13T03:27:16.097Z,6.03
2018-12-13T03:29:48.567Z,5.60
2018-12-13T03:32:20.067Z,5.73
2018-12-13T03:34:52.195Z,5.33
2018-12-13T03:37:24.232Z,6.30
2018-12-13T03:39:55.966Z,5.90
2018-12-13T03:42:28.044Z,5.63
2018-12-13T03:44:59.990Z,6.30
2018-12-13T03:47:32.315Z,5.43
2018-12-13T03:50:04.440Z,5.63
2018-12-13T03:52:36.130Z,6.40
2018-12-13T03:55:08.028Z,6.57
2018-12-13T03:57:40.025Z,6.73
2018-12-13T04:00:13.566Z,6.40
2018-12-13T04:02:45.130Z,6.43
2018-12-13T04:05:18.677Z,7.87
2018-12-13T04:07:50.331Z,5.83
2018-12-13T04:10:23.890Z,6.20
2018-12-13T04:12:55.587Z,6.77
2018-12-13T04:15:27.483Z,6.10
2018-12-13T04:17:59.437Z,6.23
2018-12-13T04:20:31.464Z,6.57
2018-12-13T04:23:03.564Z,6.37
2018-12-13T04:25:35.516Z,6.63
2018-12-13T04:28:07.614Z,6.10
2018-12-13T04:30:39.802Z,7.07
2018-12-13T04:33:13.312Z,7.10
2018-12-13T04:35:45.093Z,9.07
2018-12-13T04:38:18.758Z,7.40
2018-12-13T04:40:50.438Z,8.13
2018-12-13T04:43:22.299Z,6.70
2018-12-13T04:45:54.271Z,6.77
2018-12-13T04:48:26.340Z,6.53
2018-12-13T04:51:00.002Z,6.87
2018-12-13T04:53:31.730Z,6.80
2018-12-13T04:56:03.873Z,6.60
2018-12-13T04:58:35.785Z,7.00
2018-12-13T05:01:09.792Z,6.65
2018-12-13T05:03:43.535Z,5.97
2018-12-13T05:06:15.204Z,8.43
2018-12-13T05:08:46.868Z,7.63
2018-12-13T05:11:19.204Z,6.30
2018-12-13T05:13:50.975Z,7.67
2018-12-13T05:16:23.168Z,7.03
2018-12-13T05:18:55.227Z,6.93
2018-12-13T05:21:27.352Z,7.37
2018-12-13T05:23:59.708Z,6.67
2018-12-13T05:26:31.133Z,6.00
2018-12-13T05:29:03.510Z,8.13
2018-12-13T05:31:35.225Z,6.03
2018-12-13T05:34:08.876Z,6.00
2018-12-13T05:36:40.697Z,6.37
2018-12-13T05:39:12.952Z,6.90
2018-12-13T05:41:46.999Z,6.33
2018-12-13T05:44:21.618Z,6.27
2018-12-13T05:46:53.978Z,6.90
2018-12-13T05:49:25.956Z,7.67
2018-12-13T05:51:57.964Z,6.70
2018-12-13T05:54:30.580Z,6.50
2018-12-13T05:57:04.098Z,6.73
2018-12-13T05:59:35.791Z,7.57
2018-12-13T06:02:07.689Z,6.90
2018-12-13T06:04:40.093Z,6.70
2018-12-13T06:07:12.006Z,7.60
2018-12-13T06:09:43.999Z,6.17
2018-12-13T06:12:17.858Z,7.70
2018-12-13T06:14:53.367Z,7.17
2018-12-13T06:17:28.938Z,7.40
2018-12-13T06:20:04.144Z,7.27
2018-12-13T06:22:38.114Z,6.33
2018-12-13T06:25:09.862Z,8.80
2018-12-13T06:27:42.117Z,7.37
2018-12-13T06:30:14.030Z,7.47
2018-12-13T06:32:45.859Z,7.47
2018-12-13T06:35:19.850Z,8.00
2018-12-13T06:37:51.609Z,6.83
2018-12-13T06:40:23.731Z,6.07
2018-12-13T06:42:57.873Z,6.30
2018-12-13T06:45:29.913Z,6.07
2018-12-13T06:48:02.745Z,6.07
2018-12-13T06:50:36.844Z,6.87
2018-12-13T06:53:08.213Z,7.00
2018-12-13T06:55:40.418Z,6.97
2018-12-13T06:58:12.567Z,6.73
2018-12-13T07:00:44.686Z,7.47
2018-12-13T07:03:16.802Z,7.90
2018-12-13T07:05:48.749Z,6.80
2018-12-13T07:08:20.749Z,7.37
2018-12-13T07:10:52.486Z,6.63
2018-12-13T07:13:24.545Z,6.87
2018-12-13T07:15:56.889Z,7.57
2018-12-13T07:18:30.891Z,8.40
2018-12-13T07:21:05.400Z,5.73
2018-12-13T07:23:37.281Z,9.07
2018-12-13T07:26:11.209Z,8.03
2018-12-13T07:28:42.927Z,6.53
2018-12-13T07:31:14.664Z,7.53
2018-12-13T07:33:47.989Z,7.70
2018-12-13T07:36:21.773Z,8.00
2018-12-13T07:38:54.423Z,7.13
2018-12-13T07:41:26.199Z,7.43
2018-12-13T07:43:58.196Z,8.23
2018-12-13T07:46:30.279Z,8.37
2018-12-13T07:49:02.734Z,8.10
2018-12-13T07:54:08.238Z,8.97
2018-12-13T07:56:42.203Z,8.70
2018-12-13T07:59:15.913Z,10.10
2018-12-13T08:01:47.894Z,10.63
2018-12-13T08:04:19.904Z,8.07
2018-12-13T08:06:51.977Z,10.40
2018-12-13T08:09:26.239Z,8.53
2018-12-13T08:12:00.252Z,9.03
2018-12-13T08:14:31.984Z,10.03
2018-12-13T08:17:03.936Z,9.20
2018-12-13T08:19:36.164Z,9.07
2018-12-13T08:22:08.254Z,8.53
2018-12-13T08:24:40.141Z,8.27
2018-12-13T08:27:14.514Z,10.83
2018-12-13T08:29:46.693Z,9.90
2018-12-13T08:32:18.657Z,8.53
2018-12-13T08:34:50.901Z,8.83
2018-12-13T08:37:26.017Z,10.47
2018-12-13T08:39:59.808Z,10.57
2018-12-13T08:42:34.589Z,11.20
2018-12-13T08:45:08.649Z,10.97
2018-12-13T08:47:42.579Z,11.33
2018-12-13T08:50:16.534Z,10.27
2018-12-13T08:52:48.994Z,9.67
2018-12-13T08:55:21.062Z,9.67
2018-12-13T08:57:56.275Z,8.87
2018-12-13T09:00:30.447Z,12.60
2018-12-13T09:03:04.290Z,9.13
2018-12-13T09:05:36.145Z,10.93
2018-12-13T09:08:08.566Z,10.13
2018-12-13T09:10:40.501Z,11.63
2018-12-13T09:13:15.012Z,9.83
2018-12-13T09:15:46.901Z,9.23
2018-12-13T09:18:19.041Z,10.43
2018-12-13T09:20:51.109Z,12.70
2018-12-13T09:23:22.771Z,10.07
2018-12-13T09:25:56.796Z,11.27
2018-12-13T09:28:29.179Z,9.63
2018-12-13T09:31:04.162Z,10.17
2018-12-13T09:33:36.209Z,10.43
2018-12-13T09:36:08.321Z,9.73
2018-12-13T09:38:43.437Z,8.80
2018-12-13T09:41:15.705Z,9.10
2018-12-13T09:43:49.631Z,11.27
2018-12-13T09:46:21.600Z,10.20
2018-12-13T09:48:53.888Z,10.73
2018-12-13T09:51:25.653Z,11.33
2018-12-13T09:53:57.933Z,9.47
2018-12-13T09:56:29.620Z,8.77
2018-12-13T09:59:02.078Z,8.07
2018-12-13T10:01:36.488Z,8.53
2018-12-13T10:04:07.997Z,11.57
2018-12-13T10:06:40.353Z,10.27
2018-12-13T10:09:12.806Z,10.23
2018-12-13T10:11:44.341Z,7.73
2018-12-13T10:14:16.192Z,10.77
2018-12-13T10:16:48.226Z,9.10
2018-12-13T10:19:20.253Z,10.83
2018-12-13T10:21:52.560Z,11.03
2018-12-13T10:24:24.482Z,12.63
2018-12-13T10:26:56.450Z,8.97
2018-12-13T10:29:28.374Z,12.23
2018-12-13T10:32:01.006Z,10.17
2018-12-13T10:34:34.796Z,10.37
2018-12-13T10:37:06.341Z,10.43
2018-12-13T10:39:38.254Z,8.67
2018-12-13T10:42:10.412Z,8.43
2018-12-13T10:44:42.380Z,11.67
2018-12-13T10:47:14.486Z,9.17
2018-12-13T10:49:46.403Z,9.47
2018-12-13T10:52:20.129Z,9.47
2018-12-13T10:57:24.798Z,11.53
2018-12-13T10:59:58.654Z,10.07
2018-12-13T11:02:37.921Z,9.07
2018-12-13T11:05:12.366Z,10.80
2018-12-13T11:07:44.457Z,9.70
2018-12-13T11:10:16.511Z,8.77
2018-12-13T11:12:48.619Z,10.47
2018-12-13T11:15:22.335Z,11.03
2018-12-13T11:17:53.788Z,9.60
2018-12-13T11:20:27.387Z,9.97
2018-12-13T11:23:01.062Z,9.13
2018-12-13T11:25:32.717Z,8.93
2018-12-13T11:28:10.192Z,10.10
2018-12-13T11:30:44.450Z,9.23
2018-12-13T11:33:16.598Z,8.27
2018-12-13T11:35:48.520Z,7.93
2018-12-13T11:38:20.746Z,9.67
2018-12-13T11:40:52.590Z,9.23
2018-12-13T11:43:24.875Z,9.50
2018-12-13T11:45:56.776Z,10.40
2018-12-13T11:48:28.493Z,9.80
2018-12-13T11:51:02.682Z,10.13
2018-12-13T11:53:34.870Z,8.57
2018-12-13T11:56:06.785Z,9.60
2018-12-13T11:58:38.781Z,11.10
2018-12-13T12:01:11.010Z,9.20
2018-12-13T12:03:43.829Z,11.20
2018-12-13T12:06:19.312Z,11.10
2018-12-13T12:08:54.146Z,9.20
2018-12-13T12:11:28.090Z,9.70
2018-12-13T12:13:59.749Z,11.73
2018-12-13T12:16:32.134Z,9.33
2018-12-13T12:19:03.888Z,13.63
2018-12-13T12:21:36.074Z,9.00
2018-12-13T12:24:08.196Z,9.27
2018-12-13T12:26:40.005Z,9.13
2018-12-13T12:29:11.812Z,8.60
2018-12-13T12:31:43.829Z,11.40
2018-12-13T12:34:15.521Z,8.87
2018-12-13T12:36:48.002Z,9.80
2018-12-13T12:39:19.838Z,10.20
2018-12-13T12:41:51.922Z,9.93
2018-12-13T12:44:25.973Z,9.03
2018-12-13T12:46:57.896Z,9.73
2018-12-13T12:49:31.428Z,8.87
2018-12-13T12:52:03.462Z,11.33
2018-12-13T12:54:35.237Z,10.03
2018-12-13T12:57:07.376Z,11.07
2018-12-13T12:59:39.479Z,10.43
2018-12-13T13:02:11.456Z,11.33
2018-12-13T13:04:43.104Z,12.73
2018-12-13T13:07:15.072Z,11.90
2018-12-13T13:09:47.235Z,12.40
2018-12-13T13:12:19.233Z,12.30
2018-12-13T13:14:52.153Z,10.93
2018-12-13T13:17:24.289Z,9.70
2018-12-13T13:19:59.222Z,10.73
2018-12-13T13:22:31.613Z,9.50
2018-12-13T13:25:03.795Z,10.60
2018-12-13T13:27:36.058Z,9.07
2018-12-13T13:30:08.298Z,8.40
2018-12-13T13:32:40.228Z,8.63
2018-12-13T13:35:14.943Z,11.33
2018-12-13T13:37:47.194Z,8.87
2018-12-13T13:40:19.050Z,8.93
2018-12-13T13:42:50.342Z,9.90
2018-12-13T13:45:22.618Z,7.87
2018-12-13T13:47:55.457Z,8.43
2018-12-13T13:50:30.088Z,8.23
2018-12-13T13:53:02.074Z,8.50
2018-12-13T13:55:36.210Z,10.43
2018-12-13T13:58:08.350Z,9.83
2018-12-13T14:00:40.268Z,8.70
2018-12-13T14:03:12.385Z,9.37
2018-12-13T14:05:44.075Z,10.90
2018-12-13T14:08:16.105Z,11.07
2018-12-13T14:10:49.619Z,7.83
2018-12-13T14:13:21.294Z,9.00
2018-12-13T14:15:53.892Z,7.90
2018-12-13T14:18:26.006Z,8.77
2018-12-13T14:20:57.831Z,8.13
2018-12-13T14:23:29.849Z,9.23
2018-12-13T14:26:01.832Z,11.07
2018-12-13T14:28:36.600Z,7.67
2018-12-13T14:31:10.143Z,7.97
2018-12-13T14:33:41.961Z,8.30
2018-12-13T14:36:15.543Z,8.83
2018-12-13T14:38:47.409Z,8.17
2018-12-13T14:41:19.430Z,8.13
2018-12-13T14:43:51.549Z,8.30
2018-12-13T14:46:23.608Z,7.13
2018-12-13T14:48:55.830Z,9.57
2018-12-13T14:51:27.828Z,7.17
2018-12-13T14:54:00.112Z,8.53
2018-12-13T14:56:31.926Z,7.23
2018-12-13T14:59:05.612Z,8.57
2018-12-13T15:01:37.182Z,8.83
2018-12-13T15:04:09.164Z,10.27
2018-12-13T15:06:41.976Z,10.03
2018-12-13T15:09:14.115Z,9.13
2018-12-13T15:11:46.313Z,10.33
2018-12-13T15:14:24.346Z,8.10
2018-12-13T15:19:39.575Z,8.20
2018-12-13T15:22:14.440Z,7.57
2018-12-13T15:24:46.112Z,8.30
2018-12-13T15:27:18.923Z,7.97
2018-12-13T15:29:52.536Z,8.70
2018-12-13T15:32:24.387Z,7.47
2018-12-13T15:34:56.497Z,11.03
2018-12-13T15:37:28.761Z,7.67
2018-12-13T15:40:02.062Z,7.20
2018-12-13T15:42:36.267Z,6.90
2018-12-13T15:45:10.754Z,11.13
2018-12-13T15:47:42.659Z,7.80
2018-12-13T15:50:14.457Z,9.03
2018-12-13T15:52:50.074Z,8.60
2018-12-13T15:55:23.921Z,7.47
2018-12-13T15:57:58.003Z,7.60
2018-12-13T16:00:30.411Z,7.53
2018-12-13T16:03:02.103Z,6.63
2018-12-13T16:05:34.387Z,7.60
2018-12-13T16:08:06.612Z,8.80
2018-12-13T16:10:38.775Z,9.50
2018-12-13T16:13:12.602Z,10.27
2018-12-13T16:15:46.497Z,8.10
2018-12-13T16:18:20.174Z,7.93
2018-12-13T16:20:52.003Z,9.73
2018-12-13T16:23:23.859Z,8.20
2018-12-13T16:25:58.094Z,8.40
2018-12-13T16:28:29.818Z,7.97
2018-12-13T16:31:03.362Z,7.93
2018-12-13T16:33:37.524Z,7.80
2018-12-13T16:36:09.623Z,8.27
2018-12-13T16:38:41.625Z,6.87
2018-12-13T16:41:15.705Z,8.43
2018-12-13T16:43:49.611Z,8.30
2018-12-13T16:46:23.823Z,8.58
2018-12-13T16:48:56.060Z,8.23
2018-12-13T16:51:28.239Z,9.13
2018-12-13T16:54:00.074Z,8.13
2018-12-13T16:56:32.023Z,9.50
2018-12-13T16:59:04.287Z,7.53
2018-12-13T17:01:36.949Z,8.73
2018-12-13T17:04:08.672Z,9.13
2018-12-13T17:06:40.673Z,11.07
2018-12-13T17:09:15.877Z,9.13
2018-12-13T17:11:47.783Z,11.00
2018-12-13T17:14:19.589Z,8.77
2018-12-13T17:16:53.131Z,8.43
2018-12-13T17:19:24.800Z,10.30
2018-12-13T17:21:56.805Z,8.43
2018-12-13T17:24:28.914Z,8.63
2018-12-13T17:27:01.061Z,8.93
2018-12-13T17:29:32.995Z,8.53
2018-12-13T17:32:06.760Z,7.77
2018-12-13T17:34:38.350Z,8.10
2018-12-13T17:37:10.472Z,8.00
2018-12-13T17:39:42.437Z,10.50
2018-12-13T17:42:14.251Z,7.33
2018-12-13T17:44:46.365Z,8.30
2018-12-13T17:47:18.263Z,9.10
2018-12-13T17:49:50.258Z,8.83
2018-12-13T17:52:22.333Z,7.70
2018-12-13T17:54:54.622Z,7.53
2018-12-13T17:57:26.623Z,7.97
2018-12-13T17:59:59.098Z,8.07
2018-12-13T18:05:02.646Z,8.57
2018-12-13T18:07:34.575Z,9.63
2018-12-13T18:10:08.270Z,8.43
2018-12-13T18:12:42.178Z,8.67
2018-12-13T18:15:17.070Z,9.13
2018-12-13T18:17:51.213Z,8.07
2018-12-13T18:20:25.644Z,8.30
2018-12-13T18:23:01.518Z,10.67
2018-12-13T18:25:33.584Z,9.63
2018-12-13T18:28:06.825Z,8.13
2018-12-13T18:30:41.905Z,9.23
2018-12-13T18:33:13.879Z,9.57
2018-12-13T18:35:45.674Z,8.70
2018-12-13T18:38:17.954Z,8.47
2018-12-13T18:40:50.007Z,10.77
2018-12-13T18:43:22.287Z,9.50
2018-12-13T18:45:54.380Z,10.33
2018-12-13T18:48:27.114Z,8.73
2018-12-13T18:50:59.699Z,11.37
2018-12-13T18:53:31.791Z,9.80
2018-12-13T18:56:09.300Z,10.93
2018-12-13T18:58:45.159Z,11.73
2018-12-13T19:01:22.107Z,11.20
2018-12-13T19:03:56.111Z,9.67
2018-12-13T19:06:27.980Z,10.20
2018-12-13T19:09:00.500Z,10.57
2018-12-13T19:11:34.235Z,10.67
2018-12-13T19:14:08.073Z,8.53
2018-12-13T19:16:39.941Z,9.77
2018-12-13T19:19:11.894Z,9.63
2018-12-13T19:21:44.202Z,10.57
2018-12-13T19:24:16.202Z,8.97
2018-12-13T19:26:48.974Z,10.43
2018-12-13T19:29:22.666Z,9.80
2018-12-13T19:31:56.570Z,8.90
2018-12-13T19:34:28.355Z,8.80
2018-12-13T19:37:00.722Z,9.70
2018-12-13T19:39:35.020Z,10.03
2018-12-13T19:42:07.560Z,8.63
2018-12-13T19:44:40.851Z,8.73
2018-12-13T19:47:15.107Z,10.17
2018-12-13T19:49:47.350Z,9.00
2018-12-13T19:52:21.562Z,10.23
2018-12-13T19:54:53.275Z,10.03
2018-12-13T19:57:26.991Z,9.60
2018-12-13T20:00:01.076Z,10.50
2018-12-13T20:02:35.203Z,9.10
2018-12-13T20:05:09.141Z,10.70
2018-12-13T20:10:14.419Z,9.47
2018-12-13T20:12:48.084Z,11.47
2018-12-13T20:15:24.172Z,9.77
2018-12-13T20:17:58.075Z,11.03
2018-12-13T20:20:30.247Z,10.30
2018-12-13T20:23:02.091Z,10.07
2018-12-13T20:25:36.386Z,11.77
2018-12-13T20:28:10.609Z,10.80
2018-12-13T20:30:44.514Z,9.70
2018-12-13T20:33:18.652Z,11.07
2018-12-13T20:35:52.546Z,11.70
2018-12-13T20:38:26.801Z,10.93
2018-12-13T20:41:01.053Z,11.10
2018-12-13T20:43:35.303Z,11.17
2018-12-13T20:46:09.043Z,10.93
2018-12-13T20:48:43.244Z,11.93
2018-12-13T20:51:16.958Z,8.97
2018-12-13T20:53:48.766Z,10.97
2018-12-13T20:56:20.788Z,9.13
2018-12-13T20:58:53.220Z,9.43
2018-12-13T21:01:27.233Z,10.70
2018-12-13T21:03:59.314Z,10.17
2018-12-13T21:06:31.099Z,9.20
2018-12-13T21:09:03.543Z,11.60
2018-12-13T21:11:37.485Z,11.27
2018-12-13T21:14:11.341Z,9.70
2018-12-13T21:16:42.964Z,9.83
2018-12-13T21:19:15.861Z,10.13
2018-12-13T21:21:48.053Z,9.53
2018-12-13T21:24:22.066Z,12.17
2018-12-13T21:26:55.673Z,10.30
2018-12-13T21:29:29.990Z,9.83
2018-12-13T21:32:02.621Z,10.50
2018-12-13T21:34:36.748Z,7.70
2018-12-13T21:37:10.797Z,7.70
2018-12-13T21:39:45.054Z,7.47
2018-12-13T21:42:17.021Z,7.27
2018-12-13T21:44:49.401Z,7.93
2018-12-13T21:47:21.139Z,8.50
2018-12-13T21:49:53.694Z,8.83
2018-12-13T21:52:25.481Z,7.27
2018-12-13T21:54:59.186Z,8.03
2018-12-13T21:57:33.013Z,8.67
2018-12-13T22:00:06.088Z,7.67
2018-12-13T22:02:37.820Z,8.93
2018-12-13T22:05:09.822Z,7.63
2018-12-13T22:07:43.482Z,8.33
2018-12-13T22:10:17.668Z,8.90
2018-12-13T22:12:51.697Z,10.13
2018-12-13T22:15:23.781Z,9.70
2018-12-13T22:17:55.809Z,8.17
2018-12-13T22:20:30.780Z,9.20
2018-12-13T22:23:02.876Z,8.37
2018-12-13T22:25:34.550Z,7.93
2018-12-13T22:28:08.303Z,8.47
2018-12-13T22:30:40.427Z,8.33
2018-12-13T22:33:12.299Z,7.63
2018-12-13T22:35:44.479Z,7.90
2018-12-13T22:38:16.332Z,8.40
2018-12-13T22:40:50.116Z,10.33
2018-12-13T22:43:24.071Z,10.07
2018-12-13T22:45:55.821Z,9.20
2018-12-13T22:48:27.798Z,8.60
2018-12-13T22:51:00.182Z,8.77
2018-12-13T22:53:32.143Z,8.30
2018-12-13T22:56:04.313Z,9.07
2018-12-13T22:58:36.197Z,8.60
2018-12-13T23:01:08.179Z,8.27
2018-12-13T23:03:40.358Z,8.90
2018-12-13T23:06:12.170Z,11.47
2018-12-13T23:08:44.258Z,10.67
2018-12-13T23:11:16.142Z,9.93
2018-12-13T23:13:48.334Z,8.60
2018-12-13T23:16:20.203Z,8.63
2018-12-13T23:18:52.581Z,9.17
2018-12-13T23:21:24.155Z,11.57
2018-12-13T23:23:56.213Z,9.27
2018-12-13T23:26:29.841Z,10.23
2018-12-13T23:29:01.724Z,9.03
2018-12-13T23:31:33.785Z,10.30
2018-12-13T23:34:06.101Z,9.43
2018-12-13T23:36:38.381Z,10.43
2018-12-13T23:39:10.127Z,9.47
2018-12-13T23:41:43.834Z,8.03
2018-12-13T23:44:17.769Z,8.90
2018-12-13T23:46:51.672Z,8.90
2018-12-13T23:49:25.433Z,9.90
2018-12-13T23:51:59.494Z,9.30
2018-12-13T23:54:33.705Z,8.40
2018-12-13T23:57:07.510Z,10.70
2018-12-13T23:59:41.289Z,10.37
